Time;durP1;ratioP1;P1;durP2;ratioP2;P2;SDS_P1;SDS_P2;PMS_P1;PMS_P2;Temp;Humidity;BMP_temperature;BMP_pressure;BME280_temperature;BME280_humidity;BME280_pressure;Samples;Min_cycle;Max_cycle;Signal;HPM_P1;HPM_P2
2024/01/15 06:54:26;;;;;;;8.00;4.85;;;;;;;;;;10629597;27;20685;-83
2024/01/15 06:59:27;;;;;;;7.90;4.30;;;;;;;;;;10628113;27;20039;-84
2024/01/15 07:04:28;;;;;;;7.50;3.53;;;;;;;;;;10636480;28;20039;-86
2024/01/15 07:09:29;;;;;;;4.85;3.40;;;;;;;;;;10644487;27;20090;-86
2024/01/15 07:14:30;;;;;;;4.25;2.67;;;;;;;;;;10653809;28;20031;-86
2024/01/15 07:19:31;;;;;;;7.50;4.82;;;;;;;;;;10626710;27;20062;-86
2024/01/15 07:24:35;;;;;;;4.68;2.70;;;;;;;;;;10629396;28;20020;-87
2024/01/15 07:29:37;;;;;;;4.00;2.85;;;;;;;;;;10630667;27;20503;-86
2024/01/15 07:34:38;;;;;;;3.90;2.80;;;;;;;;;;10631312;28;20034;-86
2024/01/15 07:39:39;;;;;;;4.50;2.70;;;;;;;;;;10632412;27;20030;-86
2024/01/15 07:44:40;;;;;;;5.70;3.25;;;;;;;;;;10635528;28;20038;-86
2024/01/15 07:49:41;;;;;;;2.97;1.70;;;;;;;;;;10641051;27;20054;-87
2024/01/15 07:54:42;;;;;;;3.97;2.58;;;;;;;;;;10623364;28;20035;-87
2024/01/15 07:59:43;;;;;;;3.30;2.45;;;;;;;;;;10632402;28;20068;-86
2024/01/15 08:04:45;;;;;;;2.83;1.90;;;;;;;;;;10604442;28;20028;-86
2024/01/15 08:09:47;;;;;;;2.70;1.65;;;;;;;;;;10596993;28;20024;-88
2024/01/15 08:14:48;;;;;;;2.58;1.60;;;;;;;;;;10593714;28;20028;-87
2024/01/15 08:19:49;;;;;;;4.03;2.00;;;;;;;;;;10600383;28;20023;-85
2024/01/15 08:24:51;;;;;;;4.97;1.90;;;;;;;;;;10599786;28;20051;-82
2024/01/15 08:29:53;;;;;;;3.72;3.13;;;;;;;;;;10596716;28;20042;-82
2024/01/15 08:34:54;;;;;;;4.13;2.50;;;;;;;;;;10598081;28;20020;-83
2024/01/15 08:39:55;;;;;;;3.08;1.90;;;;;;;;;;10597917;28;20055;-83
2024/01/15 08:44:56;;;;;;;3.40;2.20;;;;;;;;;;10597425;28;20054;-83
2024/01/15 08:49:57;;;;;;;5.95;2.28;;;;;;;;;;10592963;28;20130;-83
2024/01/15 08:54:58;;;;;;;;;;;;;;;;;;10588152;28;20081;-82
2024/01/15 08:59:59;;;;;;;4.05;3.25;;;;;;;;;;10589464;28;19915;-83
2024/01/15 09:05:00;;;;;;;;;;;;;;;;;;10592234;28;20054;-83
2024/01/15 09:10:01;;;;;;;3.95;2.17;;;;;;;;;;10597208;28;20051;-83
2024/01/15 09:15:04;;;;;;;3.38;2.10;;;;;;;;;;10609188;28;20059;-81
2024/01/15 09:20:05;;;;;;;3.50;2.40;;;;;;;;;;10625264;28;20477;-81
2024/01/15 09:25:06;;;;;;;3.55;2.38;;;;;;;;;;10599395;28;20030;-82
2024/01/15 09:30:08;;;;;;;;;;;;;;;;;;10593071;28;20086;-82
2024/01/15 09:35:09;;;;;;;2.28;1.83;;;;;;;;;;10593061;28;20387;-83
2024/01/15 09:40:14;;;;;;;3.95;2.33;;;;;;;;;;10593613;28;20382;-82
2024/01/15 09:45:16;;;;;;;6.30;4.88;;;;;;;;;;10596066;28;20080;-82
2024/01/15 09:50:17;;;;;;;2.97;1.92;;;;;;;;;;10593808;28;20081;-82
2024/01/15 09:55:18;;;;;;;2.92;2.10;;;;;;;;;;10593493;28;20042;-82
2024/01/15 10:00:19;;;;;;;2.10;1.58;;;;;;;;;;10592698;28;20028;-81
2024/01/15 10:05:20;;;;;;;3.63;2.95;;;;;;;;;;10592498;28;20024;-81
2024/01/15 10:10:21;;;;;;;3.00;2.08;;;;;;;;;;10593294;28;20067;-82
2024/01/15 10:15:23;;;;;;;4.97;2.60;;;;;;;;;;10591977;28;20024;-82
2024/01/15 10:20:25;;;;;;;2.20;1.70;;;;;;;;;;10592921;28;20081;-82
2024/01/15 10:25:25;;;;;;;;;;;;;;;;;;10594462;28;20461;-82
2024/01/15 10:30:27;;;;;;;3.58;2.97;;;;;;;;;;10593449;28;19903;-83
2024/01/15 10:35:28;;;;;;;3.50;2.40;;;;;;;;;;10595595;28;20024;-82
2024/01/15 10:40:29;;;;;;;3.15;1.95;;;;;;;;;;10595113;28;20031;-82
2024/01/15 10:45:30;;;;;;;3.05;2.53;;;;;;;;;;10594342;28;20026;-80
2024/01/15 10:50:32;;;;;;;3.78;2.70;;;;;;;;;;10601397;28;20039;-83
2024/01/15 10:55:34;;;;;;;3.72;2.63;;;;;;;;;;10595627;28;20034;-83
2024/01/15 11:00:38;;;;;;;3.63;2.42;;;;;;;;;;10595713;28;20054;-83
2024/01/15 11:05:42;;;;;;;3.55;2.35;;;;;;;;;;10595291;28;20481;-83
2024/01/15 11:10:49;;;;;;;2.80;2.17;;;;;;;;;;10594939;28;20034;-83
2024/01/15 11:16:10;;;;;;;2.78;2.05;;;;;;;;;;10594656;28;20032;-82
2024/01/15 11:21:17;;;;;;;3.70;1.95;;;;;;;;;;10591001;28;20078;-82
2024/01/15 11:26:28;;;;;;;2.90;2.25;;;;;;;;;;10593479;28;20020;-82
2024/01/15 11:31:56;;;;;;;3.70;1.95;;;;;;;;;;10602145;28;20027;-83
2024/01/15 11:36:56;;;;;;;5.50;3.50;;;;;;;;;;10601952;28;20126;-81
2024/01/15 11:41:59;;;;;;;2.92;1.60;;;;;;;;;;10612746;28;20028;-82
2024/01/15 11:47:02;;;;;;;2.40;1.50;;;;;;;;;;10608118;28;20110;-82
2024/01/15 11:52:05;;;;;;;3.50;1.70;;;;;;;;;;10602854;28;20035;-82
2024/01/15 11:57:10;;;;;;;2.67;1.38;;;;;;;;;;10616760;28;20023;-82
2024/01/15 12:02:12;;;;;;;5.22;2.85;;;;;;;;;;10626319;28;20413;-85
2024/01/15 12:07:14;;;;;;;3.10;1.88;;;;;;;;;;10604434;28;20035;-83
2024/01/15 12:12:21;;;;;;;2.40;1.50;;;;;;;;;;10596628;28;20035;-83
2024/01/15 12:17:22;;;;;;;3.67;1.70;;;;;;;;;;10596080;28;20031;-83
2024/01/15 12:22:24;;;;;;;3.00;1.38;;;;;;;;;;10598542;28;20027;-85
2024/01/15 12:27:25;;;;;;;;;;;;;;;;;;10598856;28;20030;-83
2024/01/15 12:32:26;;;;;;;4.15;1.85;;;;;;;;;;10599000;28;19904;-84
2024/01/15 12:37:27;;;;;;;2.42;1.50;;;;;;;;;;10598889;28;20153;-83
2024/01/15 12:42:28;;;;;;;;;;;;;;;;;;10601003;28;20062;-84
2024/01/15 12:47:29;;;;;;;2.92;1.42;;;;;;;;;;10606272;28;20409;-84
2024/01/15 12:52:31;;;;;;;4.20;2.20;;;;;;;;;;10607458;28;20070;-84
2024/01/15 12:57:32;;;;;;;2.85;1.30;;;;;;;;;;10606611;28;20032;-85
2024/01/15 13:02:34;;;;;;;2.53;1.20;;;;;;;;;;10598383;28;20038;-84
2024/01/15 13:07:35;;;;;;;3.63;1.85;;;;;;;;;;10578625;22;20080;-78
2024/01/15 13:12:36;;;;;;;2.45;1.20;;;;;;;;;;10532963;28;20119;-79
2024/01/15 13:17:37;;;;;;;4.18;1.40;;;;;;;;;;10533012;28;20028;-79
2024/01/15 13:22:39;;;;;;;2.67;1.60;;;;;;;;;;10534850;28;20067;-77
2024/01/15 13:27:40;;;;;;;2.45;1.25;;;;;;;;;;10535704;28;20081;-78
2024/01/15 13:32:41;;;;;;;;;;;;;;;;;;10550245;28;20037;-82
2024/01/15 13:37:42;;;;;;;5.20;2.58;;;;;;;;;;10573910;28;19899;-80
2024/01/15 13:42:43;;;;;;;4.22;1.60;;;;;;;;;;10541064;28;20131;-81
2024/01/15 13:47:45;;;;;;;2.70;1.40;;;;;;;;;;10534851;28;20055;-79
2024/01/15 13:52:46;;;;;;;2.92;1.30;;;;;;;;;;10536291;28;20024;-79
2024/01/15 13:57:47;;;;;;;3.08;1.33;;;;;;;;;;10534668;28;20479;-79
2024/01/15 14:02:48;;;;;;;1.80;1.00;;;;;;;;;;10532340;28;20081;-79
2024/01/15 14:07:49;;;;;;;;;;;;;;;;;;10532914;28;20504;-78
2024/01/15 14:12:50;;;;;;;2.00;1.03;;;;;;;;;;10531322;28;19908;-80
2024/01/15 14:17:52;;;;;;;2.55;1.10;;;;;;;;;;10529847;28;20300;-79
2024/01/15 14:22:53;;;;;;;3.58;1.80;;;;;;;;;;10533720;28;20035;-79
2024/01/15 14:27:55;;;;;;;3.17;1.10;;;;;;;;;;10549978;28;20024;-79
2024/01/15 14:32:56;;;;;;;2.80;0.95;;;;;;;;;;10531037;28;20119;-80
2024/01/15 14:37:58;;;;;;;4.28;1.15;;;;;;;;;;10531486;28;20055;-80
2024/01/15 14:42:59;;;;;;;3.55;0.85;;;;;;;;;;10533056;28;20020;-80
2024/01/15 14:48:00;;;;;;;4.00;0.90;;;;;;;;;;10530732;28;20111;-79
2024/01/15 14:53:01;;;;;;;2.05;1.00;;;;;;;;;;10532243;28;20078;-79
2024/01/15 14:58:02;;;;;;;3.42;1.20;;;;;;;;;;10536071;28;20040;-79
2024/01/15 15:03:03;;;;;;;3.13;1.20;;;;;;;;;;10539184;28;20530;-80
2024/01/15 15:08:08;;;;;;;;;;;;;;;;;;10545481;28;20576;-80
2024/01/15 15:13:09;;;;;;;2.25;0.90;;;;;;;;;;10543246;28;19904;-80
2024/01/15 15:18:11;;;;;;;4.18;1.80;;;;;;;;;;10555723;28;20051;-79
2024/01/15 15:23:12;;;;;;;2.15;1.08;;;;;;;;;;10561456;28;20048;-81
2024/01/15 15:28:14;;;;;;;2.63;1.17;;;;;;;;;;10537382;28;20127;-79
2024/01/15 15:33:15;;;;;;;3.40;1.10;;;;;;;;;;10536918;28;20024;-80
2024/01/15 15:38:16;;;;;;;2.20;1.10;;;;;;;;;;10555424;28;20027;-79
2024/01/15 15:43:18;;;;;;;;;;;;;;;;;;10536853;28;20107;-79
2024/01/15 15:48:19;;;;;;;3.35;1.65;;;;;;;;;;10537844;28;19911;-79
2024/01/15 15:53:21;;;;;;;1.65;1.02;;;;;;;;;;10536590;28;20477;-79
2024/01/15 15:58:22;;;;;;;2.17;1.00;;;;;;;;;;10540982;28;20032;-79
2024/01/15 16:03:23;;;;;;;1.50;0.70;;;;;;;;;;10543020;28;20474;-80
2024/01/15 16:08:24;;;;;;;1.73;0.73;;;;;;;;;;10532949;28;20112;-79
2024/01/15 16:13:25;;;;;;;2.58;1.33;;;;;;;;;;10534447;28;20118;-80
2024/01/15 16:18:26;;;;;;;2.22;0.90;;;;;;;;;;10536194;28;20147;-79
2024/01/15 16:23:28;;;;;;;1.90;1.10;;;;;;;;;;10538649;28;20044;-80
2024/01/15 16:28:29;;;;;;;4.28;1.00;;;;;;;;;;10542392;28;20028;-80
2024/01/15 16:33:30;;;;;;;2.72;1.63;;;;;;;;;;10535395;28;20497;-81
2024/01/15 16:38:31;;;;;;;2.53;0.93;;;;;;;;;;10554342;28;20063;-79
2024/01/15 16:43:32;;;;;;;3.00;1.20;;;;;;;;;;10535272;28;20122;-81
2024/01/15 16:48:33;;;;;;;3.60;1.58;;;;;;;;;;10535588;28;20141;-80
2024/01/15 16:53:34;;;;;;;3.15;1.05;;;;;;;;;;10553454;28;20015;-77
2024/01/15 16:58:35;;;;;;;3.90;1.58;;;;;;;;;;10563175;28;20028;-78
2024/01/15 17:03:36;;;;;;;2.55;1.25;;;;;;;;;;10533124;28;20144;-80
2024/01/15 17:08:37;;;;;;;4.03;1.48;;;;;;;;;;10532217;28;20165;-81
2024/01/15 17:13:38;;;;;;;2.33;1.20;;;;;;;;;;10533309;28;20107;-80
2024/01/15 17:18:39;;;;;;;4.13;1.50;;;;;;;;;;10538931;28;20019;-81
2024/01/15 17:23:40;;;;;;;2.83;1.40;;;;;;;;;;10533572;28;20032;-82
2024/01/15 17:28:42;;;;;;;3.50;1.88;;;;;;;;;;10547130;28;20024;-80
2024/01/15 17:33:43;;;;;;;5.50;2.72;;;;;;;;;;10547243;28;20024;-80
2024/01/15 17:38:44;;;;;;;3.42;2.30;;;;;;;;;;10529036;28;20024;-78
2024/01/15 17:43:45;;;;;;;3.08;1.65;;;;;;;;;;10528726;28;20485;-80
2024/01/15 17:48:46;;;;;;;;;;;;;;;;;;10553764;28;20028;-82
2024/01/15 17:53:47;;;;;;;5.68;2.83;;;;;;;;;;10535281;28;19904;-81
2024/01/15 17:58:49;;;;;;;5.20;3.00;;;;;;;;;;10538798;28;20515;-83
2024/01/15 18:03:52;;;;;;;6.60;3.95;;;;;;;;;;10539686;28;20031;-82
2024/01/15 18:08:53;;;;;;;6.43;2.75;;;;;;;;;;10544513;28;20042;-82
2024/01/15 18:13:55;;;;;;;5.18;2.38;;;;;;;;;;10555626;28;20024;-81
2024/01/15 18:18:56;;;;;;;5.82;2.40;;;;;;;;;;10553182;28;20480;-82
2024/01/15 18:23:57;;;;;;;4.45;2.53;;;;;;;;;;10536561;28;20035;-82
2024/01/15 18:28:58;;;;;;;3.50;1.90;;;;;;;;;;10536527;28;20052;-81
2024/01/15 18:33:59;;;;;;;;;;;;;;;;;;10560164;28;20052;-81
2024/01/15 18:39:05;;;;;;;5.00;1.77;;;;;;;;;;10540301;28;19910;-82
2024/01/15 18:44:06;;;;;;;7.03;2.42;;;;;;;;;;10534860;28;20028;-82
2024/01/15 18:49:07;;;;;;;5.25;2.28;;;;;;;;;;10534944;28;20206;-82
2024/01/15 18:54:08;;;;;;;5.20;2.70;;;;;;;;;;10533955;28;20060;-81
2024/01/15 18:59:11;;;;;;;6.53;2.10;;;;;;;;;;10534171;28;20467;-81
2024/01/15 19:04:12;;;;;;;5.03;2.30;;;;;;;;;;10576008;22;20088;-84
2024/01/15 19:09:13;;;;;;;4.60;1.50;;;;;;;;;;10548952;28;20030;-84
2024/01/15 19:14:14;;;;;;;4.07;1.40;;;;;;;;;;10532002;28;20121;-84
2024/01/15 19:19:15;;;;;;;5.53;2.38;;;;;;;;;;10531837;28;20152;-84
2024/01/15 19:24:17;;;;;;;5.18;2.35;;;;;;;;;;10550088;28;20114;-84
2024/01/15 19:29:18;;;;;;;5.38;2.30;;;;;;;;;;10532622;28;20447;-85
2024/01/15 19:34:19;;;;;;;4.25;2.08;;;;;;;;;;10533684;28;20055;-85
2024/01/15 19:39:21;;;;;;;5.53;2.15;;;;;;;;;;10534995;28;20037;-85
2024/01/15 19:44:22;;;;;;;5.07;2.22;;;;;;;;;;10536544;28;20051;-84
2024/01/15 19:49:23;;;;;;;6.70;3.15;;;;;;;;;;10540220;28;20063;-86
2024/01/15 19:54:24;;;;;;;4.32;2.13;;;;;;;;;;10542162;28;20413;-85
2024/01/15 19:59:25;;;;;;;5.20;2.17;;;;;;;;;;10539741;28;20065;-85
2024/01/15 20:04:26;;;;;;;3.55;1.63;;;;;;;;;;10536370;28;20056;-85
